sensor_id;sensor_type;location;lat;lon;timestamp;pressure;altitude;pressure_sealevel;temperature;humidity
35655;BME280;21773;50.010;19.972;2023-08-07T00:01:25;97766.34;;;19.32;100.00
35655;BME280;21773;50.010;19.972;2023-08-07T00:04:28;97769.28;;;19.35;100.00
35655;BME280;21773;50.010;19.972;2023-08-07T00:07:32;97766.06;;;19.33;100.00
35655;BME280;21773;50.010;19.972;2023-08-07T00:10:36;97759.38;;;19.39;100.00
35655;BME280;21773;50.010;19.972;2023-08-07T00:13:39;97754.72;;;19.40;100.00
35655;BME280;21773;50.010;19.972;2023-08-07T00:16:43;97744.09;;;19.38;100.00
35655;BME280;21773;50.010;19.972;2023-08-07T00:19:46;97751.19;;;19.39;100.00
35655;BME280;21773;50.010;19.972;2023-08-07T00:22:50;97742.75;;;19.36;100.00
35655;BME280;21773;50.010;19.972;2023-08-07T00:25:54;97731.03;;;19.35;100.00
35655;BME280;21773;50.010;19.972;2023-08-07T00:28:57;97739.03;;;19.32;100.00
35655;BME280;21773;50.010;19.972;2023-08-07T00:32:00;97730.03;;;19.31;100.00
35655;BME280;21773;50.010;19.972;2023-08-07T00:35:06;97735.81;;;19.30;100.00
35655;BME280;21773;50.010;19.972;2023-08-07T00:38:10;97725.66;;;19.30;100.00
35655;BME280;21773;50.010;19.972;2023-08-07T00:41:16;97724.88;;;19.30;100.00
35655;BME280;21773;50.010;19.972;2023-08-07T00:44:19;97718.09;;;19.27;100.00
35655;BME280;21773;50.010;19.972;2023-08-07T00:47:22;97719.41;;;19.30;100.00
35655;BME280;21773;50.010;19.972;2023-08-07T00:50:26;97729.09;;;19.36;100.00
35655;BME280;21773;50.010;19.972;2023-08-07T00:53:48;97721.72;;;19.36;100.00
35655;BME280;21773;50.010;19.972;2023-08-07T00:56:53;97728.19;;;19.40;100.00
35655;BME280;21773;50.010;19.972;2023-08-07T00:59:57;97718.06;;;19.41;100.00
35655;BME280;21773;50.010;19.972;2023-08-07T01:03:04;97712.50;;;19.46;100.00
35655;BME280;21773;50.010;19.972;2023-08-07T01:06:08;97713.63;;;19.45;100.00
35655;BME280;21773;50.010;19.972;2023-08-07T01:09:11;97721.03;;;19.44;100.00
35655;BME280;21773;50.010;19.972;2023-08-07T01:12:19;97713.84;;;19.49;100.00
35655;BME280;21773;50.010;19.972;2023-08-07T01:15:28;97724.03;;;19.43;100.00
35655;BME280;21773;50.010;19.972;2023-08-07T01:18:34;97713.31;;;19.46;100.00
35655;BME280;21773;50.010;19.972;2023-08-07T01:21:38;97712.09;;;19.39;100.00
35655;BME280;21773;50.010;19.972;2023-08-07T01:24:44;97714.31;;;19.37;100.00
35655;BME280;21773;50.010;19.972;2023-08-07T01:27:53;97713.63;;;19.45;100.00
35655;BME280;21773;50.010;19.972;2023-08-07T01:30:59;97714.13;;;19.47;100.00
35655;BME280;21773;50.010;19.972;2023-08-07T01:34:05;97712.50;;;19.46;100.00
35655;BME280;21773;50.010;19.972;2023-08-07T01:37:12;97718.06;;;19.41;100.00
35655;BME280;21773;50.010;19.972;2023-08-07T01:40:17;97717.25;;;19.40;100.00
35655;BME280;21773;50.010;19.972;2023-08-07T01:43:21;97719.38;;;19.43;100.00
35655;BME280;21773;50.010;19.972;2023-08-07T01:46:25;97721.22;;;19.48;100.00
35655;BME280;21773;50.010;19.972;2023-08-07T01:49:28;97721.59;;;19.55;100.00
35655;BME280;21773;50.010;19.972;2023-08-07T01:52:33;97722.41;;;19.56;100.00
35655;BME280;21773;50.010;19.972;2023-08-07T01:55:38;97725.94;;;19.56;100.00
35655;BME280;21773;50.010;19.972;2023-08-07T01:58:41;97720.66;;;19.60;100.00
35655;BME280;21773;50.010;19.972;2023-08-07T02:01:44;97725.84;;;19.61;100.00
35655;BME280;21773;50.010;19.972;2023-08-07T02:04:47;97724.03;;;19.57;100.00
35655;BME280;21773;50.010;19.972;2023-08-07T02:07:50;97728.31;;;19.49;100.00
35655;BME280;21773;50.010;19.972;2023-08-07T02:10:56;97735.38;;;19.36;100.00
35655;BME280;21773;50.010;19.972;2023-08-07T02:13:59;97726.88;;;19.38;100.00
35655;BME280;21773;50.010;19.972;2023-08-07T02:17:03;97735.72;;;19.35;100.00
35655;BME280;21773;50.010;19.972;2023-08-07T02:20:07;97738.13;;;19.36;100.00
35655;BME280;21773;50.010;19.972;2023-08-07T02:23:11;97743.91;;;19.35;100.00
35655;BME280;21773;50.010;19.972;2023-08-07T02:26:15;97750.66;;;19.37;100.00
35655;BME280;21773;50.010;19.972;2023-08-07T02:29:18;97741.94;;;19.35;100.00
35655;BME280;21773;50.010;19.972;2023-08-07T02:32:21;97749.25;;;19.40;100.00
35655;BME280;21773;50.010;19.972;2023-08-07T02:35:25;97746.53;;;19.40;100.00
35655;BME280;21773;50.010;19.972;2023-08-07T02:38:28;97735.28;;;19.41;100.00
35655;BME280;21773;50.010;19.972;2023-08-07T02:41:32;97736.00;;;19.33;100.00
35655;BME280;21773;50.010;19.972;2023-08-07T02:44:36;97741.53;;;19.42;100.00
35655;BME280;21773;50.010;19.972;2023-08-07T02:47:39;97743.69;;;19.45;100.00
35655;BME280;21773;50.010;19.972;2023-08-07T02:50:42;97741.78;;;19.45;100.00
35655;BME280;21773;50.010;19.972;2023-08-07T02:53:46;97731.66;;;19.46;100.00
35655;BME280;21773;50.010;19.972;2023-08-07T02:56:50;97734.16;;;19.42;100.00
35655;BME280;21773;50.010;19.972;2023-08-07T02:59:54;97729.25;;;19.44;100.00
35655;BME280;21773;50.010;19.972;2023-08-07T03:02:57;97730.13;;;19.40;100.00
35655;BME280;21773;50.010;19.972;2023-08-07T03:06:00;97739.44;;;19.39;100.00
35655;BME280;21773;50.010;19.972;2023-08-07T03:09:04;97741.06;;;19.40;100.00
35655;BME280;21773;50.010;19.972;2023-08-07T03:12:08;97752.59;;;19.37;100.00
35655;BME280;21773;50.010;19.972;2023-08-07T03:15:12;97754.13;;;19.29;100.00
35655;BME280;21773;50.010;19.972;2023-08-07T03:18:15;97758.78;;;19.29;100.00
35655;BME280;21773;50.010;19.972;2023-08-07T03:21:18;97750.59;;;19.29;100.00
35655;BME280;21773;50.010;19.972;2023-08-07T03:24:21;97761.09;;;19.35;100.00
35655;BME280;21773;50.010;19.972;2023-08-07T03:27:26;97765.44;;;19.36;100.00
35655;BME280;21773;50.010;19.972;2023-08-07T03:30:29;97764.53;;;19.41;100.00
35655;BME280;21773;50.010;19.972;2023-08-07T03:33:33;97774.63;;;19.40;100.00
35655;BME280;21773;50.010;19.972;2023-08-07T03:36:36;97765.34;;;19.41;100.00
35655;BME280;21773;50.010;19.972;2023-08-07T03:39:40;97773.84;;;19.40;100.00
35655;BME280;21773;50.010;19.972;2023-08-07T03:42:46;97772.72;;;19.41;100.00
35655;BME280;21773;50.010;19.972;2023-08-07T03:45:54;97776.78;;;19.43;100.00
35655;BME280;21773;50.010;19.972;2023-08-07T03:49:02;97776.59;;;19.40;100.00
35655;BME280;21773;50.010;19.972;2023-08-07T03:52:05;97775.78;;;19.39;100.00
35655;BME280;21773;50.010;19.972;2023-08-07T03:55:09;97781.53;;;19.38;100.00
35655;BME280;21773;50.010;19.972;2023-08-07T03:58:14;97781.84;;;19.23;100.00
35655;BME280;21773;50.010;19.972;2023-08-07T04:01:17;97785.28;;;19.28;100.00
35655;BME280;21773;50.010;19.972;2023-08-07T04:04:20;97787.50;;;19.26;100.00
35655;BME280;21773;50.010;19.972;2023-08-07T04:07:23;97794.91;;;19.26;100.00
35655;BME280;21773;50.010;19.972;2023-08-07T04:10:27;97792.69;;;19.28;100.00
35655;BME280;21773;50.010;19.972;2023-08-07T04:13:32;97790.47;;;19.30;100.00
35655;BME280;21773;50.010;19.972;2023-08-07T04:16:36;97791.25;;;19.30;100.00
35655;BME280;21773;50.010;19.972;2023-08-07T04:19:40;97795.50;;;19.36;100.00
35655;BME280;21773;50.010;19.972;2023-08-07T04:22:43;97789.03;;;19.46;100.00
35655;BME280;21773;50.010;19.972;2023-08-07T04:25:47;97794.09;;;19.53;100.00
35655;BME280;21773;50.010;19.972;2023-08-07T04:28:52;97798.75;;;19.52;100.00
35655;BME280;21773;50.010;19.972;2023-08-07T04:31:55;97797.91;;;19.65;100.00
35655;BME280;21773;50.010;19.972;2023-08-07T04:34:58;97789.31;;;19.72;100.00
35655;BME280;21773;50.010;19.972;2023-08-07T04:38:02;97800.72;;;19.87;100.00
35655;BME280;21773;50.010;19.972;2023-08-07T04:41:05;97802.25;;;19.94;100.00
35655;BME280;21773;50.010;19.972;2023-08-07T04:44:10;97795.22;;;20.01;100.00
35655;BME280;21773;50.010;19.972;2023-08-07T04:47:13;97803.94;;;20.03;100.00
35655;BME280;21773;50.010;19.972;2023-08-07T04:50:16;97806.97;;;20.02;100.00
35655;BME280;21773;50.010;19.972;2023-08-07T04:53:20;97805.09;;;20.11;100.00
35655;BME280;21773;50.010;19.972;2023-08-07T04:56:24;97800.09;;;20.26;100.00
35655;BME280;21773;50.010;19.972;2023-08-07T04:59:28;97807.88;;;20.33;100.00
35655;BME280;21773;50.010;19.972;2023-08-07T05:02:32;97793.16;;;20.29;100.00
35655;BME280;21773;50.010;19.972;2023-08-07T05:05:36;97797.13;;;20.37;100.00
35655;BME280;21773;50.010;19.972;2023-08-07T05:08:39;97796.22;;;20.27;100.00
35655;BME280;21773;50.010;19.972;2023-08-07T05:11:43;97807.09;;;20.33;100.00
35655;BME280;21773;50.010;19.972;2023-08-07T05:14:48;97799.06;;;20.36;100.00
35655;BME280;21773;50.010;19.972;2023-08-07T05:17:52;97781.03;;;20.21;100.00
35655;BME280;21773;50.010;19.972;2023-08-07T05:20:55;97800.81;;;20.18;100.00
35655;BME280;21773;50.010;19.972;2023-08-07T05:23:58;97797.16;;;20.23;100.00
35655;BME280;21773;50.010;19.972;2023-08-07T05:27:02;97787.94;;;20.33;100.00
35655;BME280;21773;50.010;19.972;2023-08-07T05:30:07;97789.09;;;20.40;100.00
35655;BME280;21773;50.010;19.972;2023-08-07T05:33:11;97802.09;;;20.35;100.00
35655;BME280;21773;50.010;19.972;2023-08-07T05:36:16;97795.81;;;20.34;100.00
35655;BME280;21773;50.010;19.972;2023-08-07T05:39:20;97806.84;;;20.43;100.00
35655;BME280;21773;50.010;19.972;2023-08-07T05:42:23;97810.56;;;20.47;100.00
35655;BME280;21773;50.010;19.972;2023-08-07T05:45:28;97810.69;;;20.42;100.00
35655;BME280;21773;50.010;19.972;2023-08-07T05:48:31;97805.47;;;20.31;100.00
35655;BME280;21773;50.010;19.972;2023-08-07T05:51:34;97821.34;;;20.29;100.00
35655;BME280;21773;50.010;19.972;2023-08-07T05:54:37;97817.50;;;20.53;100.00
35655;BME280;21773;50.010;19.972;2023-08-07T05:57:40;97826.41;;;20.58;100.00
35655;BME280;21773;50.010;19.972;2023-08-07T06:00:45;97822.38;;;20.56;100.00
35655;BME280;21773;50.010;19.972;2023-08-07T06:03:48;97830.13;;;20.62;100.00
35655;BME280;21773;50.010;19.972;2023-08-07T06:06:51;97825.41;;;20.77;100.00
35655;BME280;21773;50.010;19.972;2023-08-07T06:09:54;97830.56;;;20.78;100.00
35655;BME280;21773;50.010;19.972;2023-08-07T06:12:58;97828.72;;;20.65;100.00
35655;BME280;21773;50.010;19.972;2023-08-07T06:16:02;97837.78;;;20.74;100.00
35655;BME280;21773;50.010;19.972;2023-08-07T06:19:06;97846.81;;;20.74;100.00
35655;BME280;21773;50.010;19.972;2023-08-07T06:22:30;97843.78;;;20.76;100.00
35655;BME280;21773;50.010;19.972;2023-08-07T06:25:36;97842.16;;;20.75;100.00
35655;BME280;21773;50.010;19.972;2023-08-07T06:28:41;97848.38;;;20.89;100.00
35655;BME280;21773;50.010;19.972;2023-08-07T06:31:46;97831.47;;;20.65;100.00
35655;BME280;21773;50.010;19.972;2023-08-07T06:34:52;97840.41;;;20.79;100.00
35655;BME280;21773;50.010;19.972;2023-08-07T06:37:55;97844.09;;;21.05;100.00
35655;BME280;21773;50.010;19.972;2023-08-07T06:40:58;97837.34;;;21.11;100.00
35655;BME280;21773;50.010;19.972;2023-08-07T06:44:02;97837.31;;;21.34;100.00
35655;BME280;21773;50.010;19.972;2023-08-07T06:47:07;97839.81;;;21.52;100.00
35655;BME280;21773;50.010;19.972;2023-08-07T06:50:12;97843.88;;;21.64;100.00
35655;BME280;21773;50.010;19.972;2023-08-07T06:53:15;97842.59;;;21.70;100.00
35655;BME280;21773;50.010;19.972;2023-08-07T06:56:18;97837.63;;;21.89;100.00
35655;BME280;21773;50.010;19.972;2023-08-07T06:59:21;97839.97;;;22.13;100.00
35655;BME280;21773;50.010;19.972;2023-08-07T07:02:27;97844.81;;;22.33;100.00
35655;BME280;21773;50.010;19.972;2023-08-07T07:05:30;97830.91;;;22.46;100.00
35655;BME280;21773;50.010;19.972;2023-08-07T07:08:35;97821.81;;;22.63;100.00
35655;BME280;21773;50.010;19.972;2023-08-07T07:11:38;97832.63;;;22.94;100.00
35655;BME280;21773;50.010;19.972;2023-08-07T07:14:42;97825.78;;;23.09;100.00
35655;BME280;21773;50.010;19.972;2023-08-07T07:17:46;97813.63;;;23.18;100.00
35655;BME280;21773;50.010;19.972;2023-08-07T07:20:56;97819.66;;;23.41;100.00
35655;BME280;21773;50.010;19.972;2023-08-07T07:24:01;97819.38;;;23.34;100.00
35655;BME280;21773;50.010;19.972;2023-08-07T07:27:05;97826.78;;;23.42;100.00
35655;BME280;21773;50.010;19.972;2023-08-07T07:30:09;97826.19;;;23.28;100.00
35655;BME280;21773;50.010;19.972;2023-08-07T07:33:15;97828.53;;;23.09;100.00
35655;BME280;21773;50.010;19.972;2023-08-07T07:36:18;97838.25;;;22.98;100.00
35655;BME280;21773;50.010;19.972;2023-08-07T07:39:22;97834.56;;;22.94;100.00
35655;BME280;21773;50.010;19.972;2023-08-07T07:42:25;97839.56;;;23.00;100.00
35655;BME280;21773;50.010;19.972;2023-08-07T07:45:28;97831.38;;;23.29;100.00
35655;BME280;21773;50.010;19.972;2023-08-07T07:48:33;97836.81;;;23.47;100.00
35655;BME280;21773;50.010;19.972;2023-08-07T07:51:36;97839.31;;;23.69;100.00
35655;BME280;21773;50.010;19.972;2023-08-07T07:54:39;97834.00;;;23.64;100.00
35655;BME280;21773;50.010;19.972;2023-08-07T07:57:42;97832.81;;;23.36;100.00
35655;BME280;21773;50.010;19.972;2023-08-07T08:00:46;97836.88;;;23.29;100.00
35655;BME280;21773;50.010;19.972;2023-08-07T08:03:50;97836.50;;;22.93;100.00
35655;BME280;21773;50.010;19.972;2023-08-07T08:06:54;97843.50;;;22.56;100.00
35655;BME280;21773;50.010;19.972;2023-08-07T08:09:57;97840.41;;;22.66;100.00
35655;BME280;21773;50.010;19.972;2023-08-07T08:13:01;97844.78;;;22.50;100.00
35655;BME280;21773;50.010;19.972;2023-08-07T08:16:06;97851.88;;;22.60;100.00
35655;BME280;21773;50.010;19.972;2023-08-07T08:19:10;97864.03;;;22.76;100.00
35655;BME280;21773;50.010;19.972;2023-08-07T08:22:14;97860.63;;;22.70;100.00
35655;BME280;21773;50.010;19.972;2023-08-07T08:25:17;97850.75;;;22.86;100.00
35655;BME280;21773;50.010;19.972;2023-08-07T08:28:21;97852.53;;;22.91;100.00
35655;BME280;21773;50.010;19.972;2023-08-07T08:31:26;97861.09;;;23.36;100.00
35655;BME280;21773;50.010;19.972;2023-08-07T08:34:31;97850.63;;;23.97;100.00
35655;BME280;21773;50.010;19.972;2023-08-07T08:37:34;97852.84;;;24.33;100.00
35655;BME280;21773;50.010;19.972;2023-08-07T08:40:39;97854.41;;;24.54;100.00
35655;BME280;21773;50.010;19.972;2023-08-07T08:43:45;97844.09;;;24.31;100.00
35655;BME280;21773;50.010;19.972;2023-08-07T08:46:49;97838.28;;;24.44;100.00
35655;BME280;21773;50.010;19.972;2023-08-07T08:50:01;97837.06;;;24.54;100.00
35655;BME280;21773;50.010;19.972;2023-08-07T08:53:05;97840.69;;;24.67;100.00
35655;BME280;21773;50.010;19.972;2023-08-07T08:56:09;97828.47;;;24.55;100.00
35655;BME280;21773;50.010;19.972;2023-08-07T08:59:13;97826.81;;;24.42;100.00
35655;BME280;21773;50.010;19.972;2023-08-07T09:02:20;97820.03;;;24.19;100.00
35655;BME280;21773;50.010;19.972;2023-08-07T09:05:25;97823.25;;;24.21;100.00
35655;BME280;21773;50.010;19.972;2023-08-07T09:08:30;97832.22;;;24.72;100.00
35655;BME280;21773;50.010;19.972;2023-08-07T09:11:34;97823.16;;;24.71;100.00
35655;BME280;21773;50.010;19.972;2023-08-07T09:14:40;97820.59;;;24.66;100.00
35655;BME280;21773;50.010;19.972;2023-08-07T09:17:44;97823.59;;;24.73;100.00
35655;BME280;21773;50.010;19.972;2023-08-07T09:20:51;97812.78;;;24.68;100.00
35655;BME280;21773;50.010;19.972;2023-08-07T09:23:54;97801.13;;;24.50;100.00
35655;BME280;21773;50.010;19.972;2023-08-07T09:26:58;97777.94;;;24.51;100.00
35655;BME280;21773;50.010;19.972;2023-08-07T09:30:01;97765.56;;;24.25;100.00
35655;BME280;21773;50.010;19.972;2023-08-07T09:33:05;97763.88;;;24.32;100.00
35655;BME280;21773;50.010;19.972;2023-08-07T09:36:11;97760.22;;;24.40;100.00
35655;BME280;21773;50.010;19.972;2023-08-07T09:39:14;97759.63;;;24.68;100.00
35655;BME280;21773;50.010;19.972;2023-08-07T09:42:18;97754.25;;;24.83;100.00
35655;BME280;21773;50.010;19.972;2023-08-07T09:45:22;97739.84;;;25.11;100.00
35655;BME280;21773;50.010;19.972;2023-08-07T09:48:26;97749.50;;;25.41;100.00
35655;BME280;21773;50.010;19.972;2023-08-07T09:51:41;97736.06;;;25.39;100.00
35655;BME280;21773;50.010;19.972;2023-08-07T09:54:45;97734.91;;;25.65;100.00
35655;BME280;21773;50.010;19.972;2023-08-07T09:57:48;97740.59;;;25.84;100.00
35655;BME280;21773;50.010;19.972;2023-08-07T10:00:51;97729.19;;;25.98;100.00
35655;BME280;21773;50.010;19.972;2023-08-07T10:03:57;97724.78;;;26.09;100.00
35655;BME280;21773;50.010;19.972;2023-08-07T10:07:02;97724.69;;;26.33;100.00
35655;BME280;21773;50.010;19.972;2023-08-07T10:10:07;97729.59;;;26.24;100.00
35655;BME280;21773;50.010;19.972;2023-08-07T10:13:12;97723.59;;;26.22;100.00
35655;BME280;21773;50.010;19.972;2023-08-07T10:16:18;97723.47;;;26.18;100.00
35655;BME280;21773;50.010;19.972;2023-08-07T10:19:22;97720.09;;;26.53;100.00
35655;BME280;21773;50.010;19.972;2023-08-07T10:22:29;97719.97;;;26.93;100.00
35655;BME280;21773;50.010;19.972;2023-08-07T10:25:34;97725.63;;;26.68;100.00
35655;BME280;21773;50.010;19.972;2023-08-07T10:28:40;97725.03;;;26.75;100.00
35655;BME280;21773;50.010;19.972;2023-08-07T10:31:44;97711.91;;;26.56;100.00
35655;BME280;21773;50.010;19.972;2023-08-07T10:34:49;97711.19;;;26.59;100.00
35655;BME280;21773;50.010;19.972;2023-08-07T10:37:54;97715.19;;;26.18;100.00
35655;BME280;21773;50.010;19.972;2023-08-07T10:41:01;97712.25;;;25.59;100.00
35655;BME280;21773;50.010;19.972;2023-08-07T10:44:05;97714.75;;;25.52;100.00
35655;BME280;21773;50.010;19.972;2023-08-07T10:47:08;97720.66;;;25.26;100.00
35655;BME280;21773;50.010;19.972;2023-08-07T10:50:11;97724.19;;;25.27;100.00
35655;BME280;21773;50.010;19.972;2023-08-07T10:53:20;97711.31;;;25.67;100.00
35655;BME280;21773;50.010;19.972;2023-08-07T10:56:30;97712.75;;;25.89;100.00
35655;BME280;21773;50.010;19.972;2023-08-07T10:59:37;97716.50;;;25.97;100.00
35655;BME280;21773;50.010;19.972;2023-08-07T11:02:42;97697.63;;;26.39;100.00
35655;BME280;21773;50.010;19.972;2023-08-07T11:05:45;97687.38;;;26.55;100.00
35655;BME280;21773;50.010;19.972;2023-08-07T11:08:50;97697.50;;;26.35;100.00
35655;BME280;21773;50.010;19.972;2023-08-07T11:11:54;97718.38;;;26.20;100.00
35655;BME280;21773;50.010;19.972;2023-08-07T11:14:57;97713.59;;;25.77;100.00
35655;BME280;21773;50.010;19.972;2023-08-07T11:18:01;97712.72;;;25.25;100.00
35655;BME280;21773;50.010;19.972;2023-08-07T11:21:04;97716.75;;;25.15;100.00
35655;BME280;21773;50.010;19.972;2023-08-07T11:24:13;97723.75;;;25.00;100.00
35655;BME280;21773;50.010;19.972;2023-08-07T11:27:17;97711.66;;;24.81;100.00
35655;BME280;21773;50.010;19.972;2023-08-07T11:30:20;97720.66;;;24.90;100.00
35655;BME280;21773;50.010;19.972;2023-08-07T11:33:24;97739.13;;;24.89;100.00
35655;BME280;21773;50.010;19.972;2023-08-07T11:36:28;97734.91;;;25.04;100.00
35655;BME280;21773;50.010;19.972;2023-08-07T11:39:41;97734.31;;;25.47;100.00
35655;BME280;21773;50.010;19.972;2023-08-07T11:42:45;97731.47;;;25.56;100.00
35655;BME280;21773;50.010;19.972;2023-08-07T11:45:48;97729.25;;;25.37;100.00
35655;BME280;21773;50.010;19.972;2023-08-07T11:48:52;97748.56;;;25.13;100.00
35655;BME280;21773;50.010;19.972;2023-08-07T11:51:57;97752.03;;;24.65;100.00
35655;BME280;21773;50.010;19.972;2023-08-07T11:55:03;97751.00;;;24.57;100.00
35655;BME280;21773;50.010;19.972;2023-08-07T11:58:08;97765.72;;;24.40;100.00
35655;BME280;21773;50.010;19.972;2023-08-07T12:01:12;97767.69;;;24.19;100.00
35655;BME280;21773;50.010;19.972;2023-08-07T12:04:17;97768.88;;;24.18;100.00
35655;BME280;21773;50.010;19.972;2023-08-07T12:07:24;97765.22;;;24.26;100.00
35655;BME280;21773;50.010;19.972;2023-08-07T12:10:32;97777.75;;;24.15;100.00
35655;BME280;21773;50.010;19.972;2023-08-07T12:13:37;97765.34;;;24.09;100.00
35655;BME280;21773;50.010;19.972;2023-08-07T12:16:43;97784.63;;;23.88;100.00
35655;BME280;21773;50.010;19.972;2023-08-07T12:19:50;97776.09;;;23.81;100.00
35655;BME280;21773;50.010;19.972;2023-08-07T12:22:53;97797.13;;;23.56;100.00
35655;BME280;21773;50.010;19.972;2023-08-07T12:25:57;97793.81;;;23.33;100.00
35655;BME280;21773;50.010;19.972;2023-08-07T12:29:00;97816.81;;;23.29;100.00
35655;BME280;21773;50.010;19.972;2023-08-07T12:32:04;97838.41;;;23.10;100.00
35655;BME280;21773;50.010;19.972;2023-08-07T12:35:08;97849.25;;;22.98;100.00
35655;BME280;21773;50.010;19.972;2023-08-07T12:38:14;97869.19;;;22.86;100.00
35655;BME280;21773;50.010;19.972;2023-08-07T12:41:20;97878.41;;;22.73;100.00
35655;BME280;21773;50.010;19.972;2023-08-07T12:44:26;97882.94;;;22.52;100.00
35655;BME280;21773;50.010;19.972;2023-08-07T12:47:29;97893.91;;;22.34;100.00
35655;BME280;21773;50.010;19.972;2023-08-07T12:50:33;97892.41;;;22.11;100.00
35655;BME280;21773;50.010;19.972;2023-08-07T12:53:36;97904.34;;;21.98;100.00
35655;BME280;21773;50.010;19.972;2023-08-07T12:56:41;97917.00;;;21.77;100.00
35655;BME280;21773;50.010;19.972;2023-08-07T12:59:44;97916.16;;;21.59;100.00
35655;BME280;21773;50.010;19.972;2023-08-07T13:02:48;97918.81;;;21.50;100.00
35655;BME280;21773;50.010;19.972;2023-08-07T13:05:51;97919.47;;;21.47;100.00
35655;BME280;21773;50.010;19.972;2023-08-07T13:08:55;97911.22;;;21.39;100.00
35655;BME280;21773;50.010;19.972;2023-08-07T13:11:59;97938.66;;;21.47;100.00
35655;BME280;21773;50.010;19.972;2023-08-07T13:15:03;97949.06;;;21.59;100.00
35655;BME280;21773;50.010;19.972;2023-08-07T13:18:07;97955.69;;;21.67;100.00
35655;BME280;21773;50.010;19.972;2023-08-07T13:21:10;97955.72;;;21.75;100.00
35655;BME280;21773;50.010;19.972;2023-08-07T13:24:13;97964.44;;;21.77;100.00
35655;BME280;21773;50.010;19.972;2023-08-07T13:27:21;97972.09;;;21.89;100.00
35655;BME280;21773;50.010;19.972;2023-08-07T13:30:24;97975.72;;;22.07;100.00
35655;BME280;21773;50.010;19.972;2023-08-07T13:33:29;97973.66;;;22.21;100.00
35655;BME280;21773;50.010;19.972;2023-08-07T13:36:32;97981.16;;;22.63;100.00
35655;BME280;21773;50.010;19.972;2023-08-07T13:39:35;97984.13;;;22.75;100.00
35655;BME280;21773;50.010;19.972;2023-08-07T13:42:40;97995.75;;;22.89;100.00
35655;BME280;21773;50.010;19.972;2023-08-07T13:45:43;97988.66;;;22.80;100.00
35655;BME280;21773;50.010;19.972;2023-08-07T13:48:46;97989.16;;;22.82;100.00
35655;BME280;21773;50.010;19.972;2023-08-07T13:51:50;97987.97;;;22.66;100.00
35655;BME280;21773;50.010;19.972;2023-08-07T13:54:53;97991.56;;;22.75;100.00
35655;BME280;21773;50.010;19.972;2023-08-07T13:57:59;97998.50;;;22.98;100.00
35655;BME280;21773;50.010;19.972;2023-08-07T14:01:02;97997.38;;;23.16;100.00
35655;BME280;21773;50.010;19.972;2023-08-07T14:04:06;97997.19;;;23.21;100.00
35655;BME280;21773;50.010;19.972;2023-08-07T14:07:09;97998.50;;;23.24;100.00
35655;BME280;21773;50.010;19.972;2023-08-07T14:10:13;98009.84;;;23.05;100.00
35655;BME280;21773;50.010;19.972;2023-08-07T14:13:17;98002.03;;;23.07;100.00
35655;BME280;21773;50.010;19.972;2023-08-07T14:16:21;97993.16;;;22.93;100.00
35655;BME280;21773;50.010;19.972;2023-08-07T14:19:25;98014.78;;;22.69;100.00
35655;BME280;21773;50.010;19.972;2023-08-07T14:22:28;98009.28;;;22.60;100.00
35655;BME280;21773;50.010;19.972;2023-08-07T14:25:32;98010.75;;;22.58;100.00
35655;BME280;21773;50.010;19.972;2023-08-07T14:28:37;98007.19;;;22.66;100.00
35655;BME280;21773;50.010;19.972;2023-08-07T14:31:40;98008.31;;;22.65;100.00
35655;BME280;21773;50.010;19.972;2023-08-07T14:34:43;98001.53;;;22.62;100.00
35655;BME280;21773;50.010;19.972;2023-08-07T14:37:48;97996.00;;;22.54;100.00
35655;BME280;21773;50.010;19.972;2023-08-07T14:40:52;97999.56;;;22.37;100.00
35655;BME280;21773;50.010;19.972;2023-08-07T14:43:56;97991.63;;;22.27;100.00
35655;BME280;21773;50.010;19.972;2023-08-07T14:46:59;98003.06;;;22.20;100.00
35655;BME280;21773;50.010;19.972;2023-08-07T14:50:03;97995.59;;;22.12;100.00
35655;BME280;21773;50.010;19.972;2023-08-07T14:53:06;98009.03;;;22.14;100.00
35655;BME280;21773;50.010;19.972;2023-08-07T14:56:09;98010.00;;;22.18;100.00
35655;BME280;21773;50.010;19.972;2023-08-07T14:59:14;98008.94;;;21.96;100.00
35655;BME280;21773;50.010;19.972;2023-08-07T15:02:17;97999.53;;;21.89;100.00
35655;BME280;21773;50.010;19.972;2023-08-07T15:05:20;98002.75;;;21.91;100.00
35655;BME280;21773;50.010;19.972;2023-08-07T15:08:23;98001.59;;;21.83;100.00
35655;BME280;21773;50.010;19.972;2023-08-07T15:11:27;98009.97;;;21.78;100.00
35655;BME280;21773;50.010;19.972;2023-08-07T15:14:31;98010.81;;;21.56;100.00
35655;BME280;21773;50.010;19.972;2023-08-07T15:17:35;98013.34;;;21.44;100.00
35655;BME280;21773;50.010;19.972;2023-08-07T15:20:38;98009.03;;;21.52;100.00
35655;BME280;21773;50.010;19.972;2023-08-07T15:23:41;98009.44;;;21.45;100.00
35655;BME280;21773;50.010;19.972;2023-08-07T15:26:44;98025.25;;;21.40;100.00
35655;BME280;21773;50.010;19.972;2023-08-07T15:29:49;98017.84;;;21.40;100.00
35655;BME280;21773;50.010;19.972;2023-08-07T15:32:52;98020.38;;;21.37;100.00
35655;BME280;21773;50.010;19.972;2023-08-07T15:35:56;98024.19;;;21.27;100.00
35655;BME280;21773;50.010;19.972;2023-08-07T15:38:59;98020.16;;;21.25;100.00
35655;BME280;21773;50.010;19.972;2023-08-07T15:42:04;98017.53;;;21.20;100.00
35655;BME280;21773;50.010;19.972;2023-08-07T15:45:10;98033.66;;;21.21;100.00
35655;BME280;21773;50.010;19.972;2023-08-07T15:48:13;98045.16;;;21.09;100.00
35655;BME280;21773;50.010;19.972;2023-08-07T15:51:16;98033.97;;;21.20;100.00